createdAt,value
2019-03-21T00:00:33.949Z,87.96
2019-03-21T00:01:58.370Z,87.99
2019-03-21T00:03:02.888Z,88.14
2019-03-21T00:04:12.711Z,87.97
2019-03-21T00:05:18.203Z,88.24
2019-03-21T00:06:22.740Z,88.26
2019-03-21T00:07:27.388Z,88.21
2019-03-21T00:08:32.205Z,88.28
2019-03-21T00:09:39.333Z,88.35
2019-03-21T00:11:06.038Z,88.06
2019-03-21T00:12:11.285Z,88.18
2019-03-21T00:13:18.448Z,88.21
2019-03-21T00:14:47.033Z,88.37
2019-03-21T00:15:57.465Z,88.25
2019-03-21T00:17:03.703Z,88.33
2019-03-21T00:18:13.818Z,88.25
2019-03-21T00:19:21.424Z,88.19
2019-03-21T00:20:28.874Z,88.15
2019-03-21T00:21:33.337Z,88.16
2019-03-21T00:22:37.803Z,88.11
2019-03-21T00:23:43.327Z,88.10
2019-03-21T00:24:50.941Z,88.09
2019-03-21T00:25:55.723Z,88.15
2019-03-21T00:27:00.264Z,88.16
2019-03-21T00:28:05.145Z,87.99
2019-03-21T00:29:09.705Z,87.97
2019-03-21T00:30:22.982Z,88.15
2019-03-21T00:31:27.519Z,88.05
2019-03-21T00:32:32.071Z,88.01
2019-03-21T00:33:36.558Z,88.04
2019-03-21T00:34:41.022Z,88.02
2019-03-21T00:35:48.218Z,88.03
2019-03-21T00:36:52.966Z,87.85
2019-03-21T00:38:00.454Z,87.95
2019-03-21T00:39:07.553Z,87.80
2019-03-21T00:40:17.989Z,87.85
2019-03-21T00:41:22.459Z,87.72
2019-03-21T00:42:27.232Z,87.71
2019-03-21T00:43:32.690Z,87.77
2019-03-21T00:44:37.465Z,87.63
2019-03-21T00:45:44.691Z,87.56
2019-03-21T00:46:52.147Z,87.56
2019-03-21T00:47:56.621Z,87.61
2019-03-21T00:49:01.114Z,87.73
2019-03-21T00:50:14.072Z,87.53
2019-03-21T00:51:21.632Z,87.47
2019-03-21T00:52:29.060Z,87.67
2019-03-21T00:53:36.878Z,87.67
2019-03-21T00:54:41.367Z,87.77
2019-03-21T00:56:01.328Z,87.83
2019-03-21T00:57:05.792Z,87.73
2019-03-21T00:58:10.634Z,87.71
2019-03-21T00:59:19.044Z,87.55
2019-03-21T01:00:29.473Z,87.59
2019-03-21T01:01:34.252Z,87.80
2019-03-21T01:02:38.723Z,87.74
2019-03-21T01:03:43.230Z,87.76
2019-03-21T01:04:47.987Z,87.69
2019-03-21T01:05:52.455Z,87.78
2019-03-21T01:06:56.928Z,87.78
2019-03-21T01:08:04.449Z,87.90
2019-03-21T01:09:16.853Z,87.91
2019-03-21T01:10:29.276Z,87.87
2019-03-21T01:11:36.738Z,87.85
2019-03-21T01:12:41.213Z,87.97
2019-03-21T01:13:46.075Z,88.05
2019-03-21T01:14:51.847Z,88.19
2019-03-21T01:15:56.320Z,88.19
2019-03-21T01:17:03.469Z,88.06
2019-03-21T01:18:12.242Z,88.03
2019-03-21T01:19:16.863Z,88.10
2019-03-21T01:20:21.356Z,88.07
2019-03-21T01:21:29.602Z,88.03
2019-03-21T01:22:34.448Z,88.15
2019-03-21T01:23:38.915Z,88.21
2019-03-21T01:24:43.706Z,88.12
2019-03-21T01:25:54.323Z,88.04
2019-03-21T01:26:58.863Z,88.04
2019-03-21T01:28:06.674Z,88.08
2019-03-21T01:29:14.094Z,88.06
2019-03-21T01:30:20.730Z,87.90
2019-03-21T01:31:28.269Z,87.83
2019-03-21T01:32:35.980Z,87.74
2019-03-21T01:33:40.457Z,88.05
2019-03-21T01:34:45.257Z,88.07
2019-03-21T01:35:50.043Z,87.95
2019-03-21T01:36:57.525Z,87.87
2019-03-21T01:38:04.669Z,87.81
2019-03-21T01:39:12.471Z,87.87
2019-03-21T01:40:20.165Z,87.93
2019-03-21T01:41:27.582Z,87.80
2019-03-21T01:42:32.060Z,87.81
2019-03-21T01:43:39.267Z,87.89
2019-03-21T01:44:47.978Z,88.01
2019-03-21T02:37:36.137Z,88.14
2019-03-21T02:39:01.405Z,88.20
2019-03-21T02:40:26.911Z,88.30
2019-03-21T02:41:51.685Z,88.22
2019-03-21T02:58:39.320Z,88.41
2019-03-21T02:59:47.985Z,88.45
2019-03-21T03:00:54.885Z,88.45
2019-03-21T03:01:59.376Z,88.15
2019-03-21T03:03:04.514Z,88.30
2019-03-21T03:04:10.123Z,88.37
2019-03-21T03:17:17.795Z,87.98
2019-03-21T03:18:23.721Z,87.95
2019-03-21T03:19:29.172Z,88.04
2019-03-21T03:20:33.681Z,88.03
2019-03-21T03:21:41.102Z,87.76
2019-03-21T03:22:48.476Z,87.73
2019-03-21T03:23:52.999Z,87.75
2019-03-21T03:25:44.906Z,87.64
2019-03-21T03:38:10.910Z,87.52
2019-03-21T03:39:37.630Z,87.45
2019-03-21T03:47:53.165Z,87.39
2019-03-21T04:00:20.686Z,87.70
2019-03-21T04:30:38.254Z,86.83
2019-03-21T04:31:45.328Z,86.89
2019-03-21T04:32:49.807Z,86.81
2019-03-21T04:34:00.825Z,86.84
2019-03-21T04:35:10.189Z,86.80
2019-03-21T04:36:14.737Z,86.82
2019-03-21T04:37:22.347Z,86.69
2019-03-21T04:38:27.264Z,86.59
2019-03-21T04:39:31.734Z,86.69
2019-03-21T04:40:39.297Z,86.75
2019-03-21T04:41:45.492Z,86.67
2019-03-21T04:42:49.964Z,86.72
2019-03-21T04:43:54.527Z,86.80
2019-03-21T04:45:00.536Z,86.64
2019-03-21T04:46:05.159Z,86.67
2019-03-21T04:47:09.879Z,86.69
2019-03-21T04:48:14.340Z,86.45
2019-03-21T04:49:19.812Z,86.59
2019-03-21T04:50:30.023Z,86.61
2019-03-21T04:51:34.502Z,86.65
2019-03-21T04:52:39.285Z,86.53
2019-03-21T04:53:47.071Z,86.73
2019-03-21T04:54:53.775Z,86.62
2019-03-21T04:55:58.305Z,86.37
2019-03-21T04:57:04.299Z,86.41
2019-03-21T04:58:14.587Z,86.39
2019-03-21T04:59:19.363Z,86.70
2019-03-21T05:00:38.136Z,86.70
2019-03-21T05:01:44.190Z,86.70
2019-03-21T05:02:49.499Z,86.42
2019-03-21T05:03:53.979Z,86.09
2019-03-21T05:04:58.527Z,86.31
2019-03-21T05:06:06.306Z,86.40
2019-03-21T05:07:10.853Z,86.28
2019-03-21T05:08:16.413Z,86.23
2019-03-21T05:09:23.809Z,86.23
2019-03-21T05:10:37.570Z,86.27
2019-03-21T05:11:44.831Z,86.22
2019-03-21T05:12:52.626Z,86.42
2019-03-21T05:13:57.223Z,86.29
2019-03-21T05:15:01.710Z,86.10
2019-03-21T05:16:14.245Z,86.13
2019-03-21T05:17:14.871Z,86.16
2019-03-21T05:18:22.387Z,86.00
2019-03-21T05:19:29.752Z,86.09
2019-03-21T05:20:34.244Z,86.33
2019-03-21T05:21:41.375Z,86.23
2019-03-21T05:22:45.907Z,86.30
2019-03-21T05:23:50.384Z,86.08
2019-03-21T05:24:54.880Z,85.98
2019-03-21T05:25:59.341Z,86.09
2019-03-21T05:27:03.841Z,86.09
2019-03-21T05:28:11.049Z,86.15
2019-03-21T05:29:15.597Z,86.30
2019-03-21T05:30:31.228Z,86.12
2019-03-21T05:31:36.460Z,86.23
2019-03-21T05:32:40.930Z,86.06
2019-03-21T05:33:49.811Z,86.15
2019-03-21T05:34:54.355Z,85.90
2019-03-21T05:35:58.999Z,86.06
2019-03-21T05:37:03.767Z,85.95
2019-03-21T05:38:08.227Z,85.92
2019-03-21T05:39:15.654Z,85.74
2019-03-21T05:40:23.463Z,85.81
2019-03-21T05:41:28.265Z,85.88
2019-03-21T05:42:35.434Z,85.82
2019-03-21T05:43:46.806Z,85.99
2019-03-21T05:44:53.949Z,86.10
2019-03-21T05:45:58.438Z,86.08
2019-03-21T05:47:02.912Z,85.91
2019-03-21T05:48:07.377Z,86.00
2019-03-21T05:49:11.857Z,86.12
2019-03-21T05:50:17.876Z,85.87
2019-03-21T05:51:29.026Z,85.99
2019-03-21T05:52:33.491Z,85.88
2019-03-21T05:53:40.666Z,85.75
2019-03-21T05:54:45.137Z,85.80
2019-03-21T05:55:49.619Z,85.90
2019-03-21T05:56:56.854Z,85.77
2019-03-21T05:58:01.402Z,85.68
2019-03-21T05:59:06.206Z,85.83
2019-03-21T06:00:32.315Z,85.67
2019-03-21T06:01:40.309Z,85.57
2019-03-21T06:02:44.776Z,85.32
2019-03-21T06:03:50.666Z,85.44
2019-03-21T06:04:55.571Z,85.51
2019-03-21T06:06:16.934Z,85.36
2019-03-21T06:07:25.640Z,85.39
2019-03-21T06:08:38.751Z,85.25
2019-03-21T06:09:45.884Z,85.32
2019-03-21T06:10:50.446Z,85.13
2019-03-21T06:12:03.147Z,84.87
2019-03-21T06:13:10.330Z,84.92
2019-03-21T06:14:14.868Z,85.07
2019-03-21T06:15:25.253Z,84.73
2019-03-21T06:16:37.541Z,85.02
2019-03-21T06:17:41.918Z,84.79
2019-03-21T06:19:01.288Z,84.76
2019-03-21T06:20:31.633Z,84.85
2019-03-21T06:21:51.122Z,84.81
2019-03-21T06:23:02.405Z,84.66
2019-03-21T06:24:25.027Z,84.74
2019-03-21T06:25:47.393Z,84.75
2019-03-21T06:27:14.459Z,84.40
2019-03-21T06:28:19.036Z,84.51
2019-03-21T06:29:26.523Z,84.50
2019-03-21T06:30:33.923Z,84.30
2019-03-21T06:31:44.715Z,84.06
2019-03-21T06:32:52.135Z,84.07
2019-03-21T06:34:01.233Z,83.97
2019-03-21T06:35:07.736Z,83.91
2019-03-21T06:36:15.193Z,84.24
2019-03-21T06:37:19.661Z,83.97
2019-03-21T06:38:24.131Z,83.82
2019-03-21T06:39:28.596Z,83.87
2019-03-21T06:40:35.789Z,83.99
2019-03-21T06:41:44.269Z,83.78
2019-03-21T06:42:48.730Z,83.60
2019-03-21T06:43:54.734Z,83.49
2019-03-21T06:45:00.837Z,83.50
2019-03-21T06:46:08.015Z,83.50
2019-03-21T06:47:12.523Z,83.64
2019-03-21T06:48:17.024Z,82.90
2019-03-21T06:49:21.506Z,82.90
2019-03-21T06:50:33.844Z,82.82
2019-03-21T06:51:46.315Z,82.85
2019-03-21T06:52:50.848Z,82.81
2019-03-21T06:54:01.877Z,82.81
2019-03-21T06:55:06.582Z,82.41
2019-03-21T06:56:14.067Z,82.41
2019-03-21T06:57:18.635Z,82.28
2019-03-21T06:58:26.284Z,82.24
2019-03-21T06:59:30.771Z,81.93
2019-03-21T07:00:41.196Z,81.55
2019-03-21T07:01:49.086Z,81.55
2019-03-21T07:02:53.562Z,81.60
2019-03-21T07:04:06.585Z,81.66
2019-03-21T07:05:06.291Z,81.53
2019-03-21T07:06:13.804Z,81.57
2019-03-21T07:07:18.715Z,81.57
2019-03-21T07:08:26.409Z,81.01
2019-03-21T07:09:33.549Z,80.74
2019-03-21T07:10:38.026Z,80.42
2019-03-21T07:11:42.944Z,79.92
2019-03-21T07:12:47.435Z,79.92
2019-03-21T07:13:51.907Z,80.29
2019-03-21T07:14:56.380Z,79.70
2019-03-21T07:16:00.849Z,79.99
2019-03-21T07:17:05.596Z,79.99
2019-03-21T07:18:15.734Z,79.84
2019-03-21T07:19:20.215Z,79.56
2019-03-21T07:20:24.680Z,79.78
2019-03-21T07:21:33.140Z,79.81
2019-03-21T07:22:38.629Z,79.84
2019-03-21T07:23:43.672Z,79.76
2019-03-21T07:24:53.201Z,79.73
2019-03-21T07:25:58.305Z,79.79
2019-03-21T07:27:06.358Z,79.55
2019-03-21T07:28:13.567Z,79.72
2019-03-21T07:29:18.069Z,79.41
2019-03-21T07:30:28.499Z,80.22
2019-03-21T07:31:32.970Z,80.22
2019-03-21T07:32:37.485Z,79.43
2019-03-21T07:33:46.548Z,79.58
2019-03-21T07:34:51.047Z,79.58
2019-03-21T07:35:55.910Z,79.96
2019-03-21T07:37:03.662Z,80.12
2019-03-21T07:38:14.476Z,80.04
2019-03-21T07:39:21.901Z,80.21
2019-03-21T07:40:29.148Z,80.48
2019-03-21T07:41:33.998Z,80.53
2019-03-21T07:42:38.474Z,80.44
2019-03-21T07:43:45.804Z,80.48
2019-03-21T07:44:50.263Z,80.44
2019-03-21T07:45:57.687Z,80.11
2019-03-21T07:47:12.308Z,79.88
2019-03-21T07:48:09.839Z,80.12
2019-03-21T07:49:14.319Z,80.04
2019-03-21T07:50:19.048Z,80.40
2019-03-21T07:51:23.520Z,80.25
2019-03-21T07:52:28.832Z,80.29
2019-03-21T07:53:38.630Z,80.45
2019-03-21T07:54:52.206Z,80.62
2019-03-21T07:55:57.135Z,80.29
2019-03-21T07:57:01.614Z,79.90
2019-03-21T07:58:15.537Z,79.90
2019-03-21T07:59:20.003Z,80.28
2019-03-21T08:00:29.180Z,80.28
2019-03-21T08:01:37.405Z,80.73
2019-03-21T08:02:41.889Z,80.25
2019-03-21T08:03:49.187Z,80.25
2019-03-21T08:04:53.668Z,80.19
2019-03-21T08:05:58.142Z,80.36
2019-03-21T08:07:02.664Z,80.33
2019-03-21T08:08:13.071Z,80.30
2019-03-21T08:09:22.348Z,80.46
2019-03-21T08:10:26.933Z,80.30
2019-03-21T08:11:40.489Z,80.41
2019-03-21T08:12:44.964Z,80.43
2019-03-21T08:13:49.471Z,80.71
2019-03-21T08:14:53.929Z,80.71
2019-03-21T08:15:58.404Z,80.69
2019-03-21T08:17:02.878Z,80.01
2019-03-21T08:18:12.408Z,80.10
2019-03-21T08:19:13.554Z,80.16
2019-03-21T08:20:19.939Z,79.88
2019-03-21T08:21:27.354Z,79.79
2019-03-21T08:22:31.838Z,79.96
2019-03-21T08:23:36.332Z,80.09
2019-03-21T08:24:40.814Z,80.00
2019-03-21T08:25:48.643Z,79.86
2019-03-21T08:26:53.117Z,80.04
2019-03-21T08:27:57.982Z,80.05
2019-03-21T08:29:09.985Z,79.91
2019-03-21T08:30:40.359Z,80.02
2019-03-21T08:31:47.816Z,79.74
2019-03-21T08:32:52.361Z,79.15
2019-03-21T08:34:05.177Z,79.39
2019-03-21T08:35:12.496Z,79.54
2019-03-21T08:36:17.113Z,79.50
2019-03-21T08:37:21.592Z,79.31
2019-03-21T08:38:35.204Z,79.45
2019-03-21T08:39:49.173Z,79.68
2019-03-21T08:40:53.651Z,78.91
2019-03-21T08:41:58.483Z,78.91
2019-03-21T08:43:04.435Z,78.97
2019-03-21T08:44:12.525Z,79.33
2019-03-21T08:45:18.444Z,78.81
2019-03-21T08:46:25.598Z,78.53
2019-03-21T08:47:32.889Z,78.57
2019-03-21T08:48:40.032Z,78.06
2019-03-21T08:49:50.070Z,78.28
2019-03-21T08:50:54.888Z,77.49
2019-03-21T08:52:02.032Z,78.13
2019-03-21T08:53:06.500Z,76.92
2019-03-21T08:54:10.987Z,77.22
2019-03-21T08:55:18.533Z,77.22
2019-03-21T08:56:25.985Z,77.43
2019-03-21T08:57:31.656Z,77.73
2019-03-21T08:58:36.482Z,77.29
2019-03-21T08:59:48.039Z,77.37
2019-03-21T09:00:55.948Z,77.62
2019-03-21T09:02:00.431Z,77.24
2019-03-21T09:03:05.459Z,77.48
2019-03-21T09:04:11.024Z,77.34
2019-03-21T09:05:19.036Z,77.65
2019-03-21T09:06:25.268Z,77.36
2019-03-21T09:07:31.574Z,77.34
2019-03-21T09:08:37.114Z,77.08
2019-03-21T09:09:46.242Z,77.08
2019-03-21T09:10:52.075Z,77.61
2019-03-21T09:11:56.536Z,77.68
2019-03-21T09:13:01.007Z,77.68
2019-03-21T09:14:05.507Z,77.38
2019-03-21T09:15:11.211Z,77.50
2019-03-21T09:16:15.759Z,76.81
2019-03-21T09:17:23.337Z,77.16
2019-03-21T09:18:34.144Z,77.67
2019-03-21T09:19:41.031Z,77.67
2019-03-21T09:20:46.395Z,76.97
2019-03-21T09:21:50.865Z,76.68
2019-03-21T09:23:03.089Z,76.68
2019-03-21T09:24:09.567Z,76.82
2019-03-21T09:25:18.965Z,76.70
2019-03-21T09:26:26.407Z,76.43
2019-03-21T09:27:33.784Z,75.76
2019-03-21T09:28:40.090Z,76.11
2019-03-21T09:29:53.114Z,75.52
2019-03-21T09:30:50.886Z,75.80
2019-03-21T09:31:55.854Z,75.76
2019-03-21T09:33:03.025Z,75.79
2019-03-21T09:34:07.492Z,74.72
2019-03-21T09:35:12.711Z,75.11
2019-03-21T09:36:19.923Z,75.94
2019-03-21T09:37:27.305Z,75.73
2019-03-21T09:38:31.783Z,75.59
2019-03-21T09:39:41.026Z,75.10
2019-03-21T09:40:48.427Z,75.05
2019-03-21T09:41:52.900Z,74.69
2019-03-21T09:42:57.678Z,74.66
2019-03-21T09:44:02.149Z,74.30
2019-03-21T09:45:08.302Z,74.71
2019-03-21T09:46:12.768Z,74.42
2019-03-21T09:47:17.244Z,74.82
2019-03-21T09:48:21.745Z,74.79
2019-03-21T09:49:29.876Z,74.46
2019-03-21T09:50:34.693Z,74.79
2019-03-21T09:51:41.860Z,74.92
2019-03-21T09:52:46.332Z,74.77
2019-03-21T09:53:50.805Z,74.89
2019-03-21T09:54:58.567Z,74.63
2019-03-21T09:56:03.403Z,73.57
2019-03-21T09:57:07.879Z,73.57
2019-03-21T09:58:12.367Z,74.42
2019-03-21T09:59:17.131Z,73.92
2019-03-21T10:00:27.745Z,73.80
2019-03-21T10:01:35.048Z,73.22
2019-03-21T10:02:42.825Z,73.21
2019-03-21T10:03:47.297Z,73.12
2019-03-21T10:04:55.725Z,72.55
2019-03-21T10:06:02.204Z,72.57
2019-03-21T10:07:07.072Z,72.46
2019-03-21T10:08:14.591Z,72.57
2019-03-21T10:09:26.206Z,72.91
2019-03-21T10:10:34.363Z,72.82
2019-03-21T10:11:41.770Z,72.24
2019-03-21T10:12:49.186Z,71.92
2019-03-21T10:13:53.658Z,71.45
2019-03-21T10:15:01.575Z,72.01
2019-03-21T10:16:08.459Z,71.45
2019-03-21T10:17:16.281Z,71.80
2019-03-21T10:18:27.672Z,71.59
2019-03-21T10:19:32.159Z,70.94
2019-03-21T10:20:39.715Z,71.31
2019-03-21T10:21:44.195Z,71.39
2019-03-21T10:22:51.771Z,72.20
2019-03-21T10:23:56.242Z,72.38
2019-03-21T10:25:09.396Z,73.03
2019-03-21T10:26:13.948Z,72.64
2019-03-21T10:27:25.814Z,72.48
2019-03-21T10:28:36.676Z,72.56
2019-03-21T10:29:41.155Z,72.39
2019-03-21T10:30:48.073Z,71.98
2019-03-21T10:31:53.810Z,72.01
2019-03-21T10:33:06.712Z,71.90
2019-03-21T10:34:11.545Z,72.05
2019-03-21T10:35:16.404Z,71.69
2019-03-21T10:36:20.887Z,72.50
2019-03-21T10:37:28.341Z,72.52
2019-03-21T10:38:35.529Z,72.60
2019-03-21T10:39:40.001Z,72.82
2019-03-21T10:40:44.495Z,72.62
2019-03-21T10:41:52.177Z,72.62
2019-03-21T10:43:01.776Z,72.77
2019-03-21T10:44:07.041Z,72.80
2019-03-21T10:45:11.577Z,72.36
2019-03-21T10:46:16.204Z,72.49
2019-03-21T10:47:24.173Z,72.59
2019-03-21T10:48:28.649Z,72.61
2019-03-21T10:49:33.239Z,72.69
2019-03-21T10:50:39.835Z,72.27
2019-03-21T10:51:54.396Z,72.51
2019-03-21T10:52:55.871Z,72.21
2019-03-21T10:54:03.259Z,71.87
2019-03-21T10:55:10.683Z,71.81
2019-03-21T10:56:18.094Z,71.17
2019-03-21T10:57:25.530Z,71.24
2019-03-21T10:58:33.068Z,71.81
2019-03-21T10:59:38.523Z,71.66
2019-03-21T11:00:50.630Z,71.16
2019-03-21T11:02:06.909Z,70.94
2019-03-21T11:03:10.832Z,70.38
2019-03-21T11:04:18.338Z,70.78
2019-03-21T11:05:25.743Z,71.27
2019-03-21T11:06:36.845Z,71.29
2019-03-21T11:07:44.513Z,71.57
2019-03-21T11:08:57.723Z,71.25
2019-03-21T11:10:05.996Z,71.32
2019-03-21T11:11:10.505Z,71.14
2019-03-21T11:12:18.128Z,70.98
2019-03-21T11:13:25.557Z,70.99
2019-03-21T11:14:30.457Z,70.99
2019-03-21T11:15:35.518Z,71.27
2019-03-21T11:16:39.985Z,71.00
2019-03-21T11:17:44.528Z,71.03
2019-03-21T11:18:54.969Z,71.44
2019-03-21T11:20:06.111Z,71.59
2019-03-21T11:21:10.114Z,71.83
2019-03-21T11:22:20.305Z,71.27
2019-03-21T11:23:26.292Z,71.41
2019-03-21T11:24:37.101Z,71.51
2019-03-21T11:25:44.352Z,71.30
2019-03-21T11:26:49.214Z,71.93
2019-03-21T11:27:54.672Z,71.55
2019-03-21T11:29:02.662Z,71.13
2019-03-21T11:30:16.050Z,71.11
2019-03-21T11:31:16.135Z,71.99
2019-03-21T11:32:23.757Z,71.75
2019-03-21T11:33:31.164Z,72.19
2019-03-21T11:34:35.637Z,72.21
2019-03-21T11:35:40.182Z,72.44
2019-03-21T11:36:54.066Z,72.33
2019-03-21T11:38:00.053Z,72.20
2019-03-21T11:39:08.066Z,72.13
2019-03-21T11:40:12.539Z,72.20
2019-03-21T11:41:17.019Z,72.32
2019-03-21T11:42:26.593Z,72.42
2019-03-21T11:43:33.767Z,72.30
2019-03-21T11:44:39.015Z,72.67
2019-03-21T11:45:43.575Z,72.37
2019-03-21T11:46:48.740Z,71.96
2019-03-21T11:47:53.239Z,72.30
2019-03-21T11:48:58.034Z,72.47
2019-03-21T11:50:02.596Z,72.87
2019-03-21T11:51:07.070Z,72.64
2019-03-21T11:52:18.179Z,72.00
2019-03-21T11:53:20.658Z,72.29
2019-03-21T11:54:28.049Z,72.33
2019-03-21T11:55:35.054Z,72.37
2019-03-21T11:56:39.545Z,72.19
2019-03-21T11:57:46.702Z,72.42
2019-03-21T11:59:00.271Z,72.28
2019-03-21T12:00:09.572Z,71.89
2019-03-21T12:01:14.113Z,71.88
2019-03-21T12:02:27.185Z,71.52
2019-03-21T12:03:30.743Z,71.89
2019-03-21T12:04:36.326Z,72.04
2019-03-21T12:05:40.805Z,72.08
2019-03-21T12:06:48.374Z,72.16
2019-03-21T12:07:55.572Z,72.34
2019-03-21T12:09:03.167Z,71.85
2019-03-21T12:10:16.667Z,71.90
2019-03-21T12:11:23.083Z,72.18
2019-03-21T12:12:31.356Z,71.85
2019-03-21T12:13:40.139Z,71.54
2019-03-21T12:14:49.761Z,71.41
2019-03-21T12:15:57.720Z,71.42
2019-03-21T12:17:02.238Z,71.43
2019-03-21T12:18:09.649Z,71.47
2019-03-21T12:19:14.488Z,71.88
2019-03-21T12:20:32.600Z,71.46
2019-03-21T12:21:37.512Z,71.22
2019-03-21T12:22:47.277Z,71.05
2019-03-21T12:23:54.488Z,71.56
2019-03-21T12:24:59.934Z,71.05
2019-03-21T12:26:08.977Z,70.53
2019-03-21T12:27:16.392Z,70.00
2019-03-21T12:28:23.918Z,70.70
2019-03-21T12:29:28.388Z,71.41
2019-03-21T12:30:37.892Z,71.09
2019-03-21T12:31:42.663Z,71.03
2019-03-21T12:32:47.149Z,71.23
2019-03-21T12:33:53.425Z,71.51
2019-03-21T12:35:06.940Z,71.21
2019-03-21T12:36:11.412Z,71.37
2019-03-21T12:37:19.244Z,71.40
2019-03-21T12:38:23.734Z,71.26
2019-03-21T12:39:31.492Z,71.29
2019-03-21T12:40:36.160Z,71.56
2019-03-21T12:41:40.629Z,71.43
2019-03-21T12:42:47.840Z,71.71
2019-03-21T12:43:52.319Z,71.63
2019-03-21T12:44:56.795Z,71.37
2019-03-21T12:46:01.600Z,71.23
2019-03-21T12:47:06.074Z,71.81
2019-03-21T12:48:10.567Z,72.08
2019-03-21T12:49:22.448Z,72.32
2019-03-21T12:50:25.184Z,72.53
2019-03-21T12:51:32.584Z,72.32
2019-03-21T12:53:43.567Z,72.85
2019-03-21T12:54:50.956Z,72.62
2019-03-21T12:55:59.177Z,72.48
2019-03-21T12:57:07.618Z,72.46
2019-03-21T12:58:12.108Z,71.95
2019-03-21T12:59:19.683Z,72.26
2019-03-21T13:00:38.100Z,72.38
2019-03-21T13:01:44.735Z,71.99
2019-03-21T13:02:49.538Z,72.02
2019-03-21T13:03:54.043Z,71.90
2019-03-21T13:04:58.503Z,71.95
2019-03-21T13:06:02.984Z,71.76
2019-03-21T13:07:10.614Z,71.71
2019-03-21T13:07:13.416Z,72.58
2019-03-21T13:08:15.168Z,72.09
2019-03-21T13:09:19.643Z,72.33
2019-03-21T13:10:24.113Z,72.36
2019-03-21T13:11:28.588Z,72.35
2019-03-21T13:12:33.060Z,72.32
2019-03-21T13:13:37.567Z,72.54
2019-03-21T13:14:42.040Z,72.54
2019-03-21T13:15:49.784Z,72.62
2019-03-21T13:16:54.648Z,72.98
2019-03-21T13:18:00.654Z,72.72
2019-03-21T13:19:05.351Z,72.13
2019-03-21T13:20:10.065Z,72.05
2019-03-21T13:21:17.922Z,72.62
2019-03-21T13:22:22.459Z,72.46
2019-03-21T13:23:26.966Z,72.26
2019-03-21T13:24:31.436Z,72.62
2019-03-21T13:25:36.286Z,72.47
2019-03-21T13:26:44.058Z,72.56
2019-03-21T13:27:51.235Z,72.63
2019-03-21T13:29:02.054Z,72.35
2019-03-21T13:30:07.765Z,72.35
2019-03-21T13:31:14.885Z,72.29
2019-03-21T13:32:19.361Z,72.34
2019-03-21T13:33:26.978Z,72.17
2019-03-21T13:34:34.377Z,71.83
2019-03-21T13:35:38.854Z,71.84
2019-03-21T13:36:43.406Z,72.26
2019-03-21T13:37:47.880Z,72.41
2019-03-21T13:38:58.332Z,72.06
2019-03-21T13:40:02.803Z,72.18
2019-03-21T13:41:07.282Z,72.23
2019-03-21T13:42:11.752Z,72.16
2019-03-21T13:43:19.487Z,72.47
2019-03-21T13:44:23.940Z,71.98
2019-03-21T13:45:31.823Z,71.92
2019-03-21T13:46:36.296Z,72.15
2019-03-21T13:47:47.733Z,72.44
2019-03-21T13:48:55.787Z,72.49
2019-03-21T13:50:00.350Z,72.36
2019-03-21T13:51:04.976Z,72.73
2019-03-21T13:52:09.739Z,72.72
2019-03-21T13:53:18.904Z,72.45
2019-03-21T13:54:21.582Z,72.58
2019-03-21T13:55:26.054Z,72.74
2019-03-21T13:56:37.974Z,72.71
2019-03-21T13:57:42.196Z,72.97
2019-03-21T13:58:49.611Z,73.15
2019-03-21T13:59:54.082Z,73.48
2019-03-21T14:00:58.942Z,73.19
2019-03-21T14:02:03.417Z,73.37
2019-03-21T14:03:07.887Z,73.27
2019-03-21T14:04:12.388Z,73.04
2019-03-21T14:05:17.311Z,73.29
2019-03-21T14:06:23.564Z,73.11
2019-03-21T14:07:28.044Z,72.79
2019-03-21T14:08:32.523Z,73.13
2019-03-21T14:09:37.009Z,73.34
2019-03-21T14:10:41.552Z,73.15
2019-03-21T14:11:46.030Z,72.91
2019-03-21T14:12:50.820Z,73.05
2019-03-21T14:13:58.063Z,72.61
2019-03-21T14:15:19.469Z,72.79
2019-03-21T14:16:23.221Z,72.97
2019-03-21T14:17:28.146Z,73.26
2019-03-21T14:18:36.943Z,73.01
2019-03-21T14:19:44.115Z,72.90
2019-03-21T14:20:51.581Z,72.67
2019-03-21T14:21:56.071Z,72.77
2019-03-21T14:23:00.529Z,72.59
2019-03-21T14:24:05.007Z,72.06
2019-03-21T14:25:09.916Z,71.35
2019-03-21T14:26:25.105Z,71.48
2019-03-21T14:27:30.942Z,71.37
2019-03-21T14:28:38.589Z,71.13
2019-03-21T14:29:43.075Z,70.95
2019-03-21T14:30:48.812Z,71.20
2019-03-21T14:31:53.282Z,71.38
2019-03-21T14:33:00.487Z,71.45
2019-03-21T14:34:04.963Z,71.45
2019-03-21T14:35:12.736Z,71.59
2019-03-21T14:36:17.206Z,71.70
2019-03-21T14:37:21.715Z,71.60
2019-03-21T14:38:29.102Z,71.07
2019-03-21T14:39:33.918Z,71.62
2019-03-21T14:40:41.096Z,71.55
2019-03-21T14:41:45.574Z,71.97
2019-03-21T14:42:50.040Z,72.00
2019-03-21T14:43:54.547Z,72.31
2019-03-21T14:44:59.287Z,71.97
2019-03-21T14:46:03.759Z,72.67
2019-03-21T14:47:11.239Z,72.09
2019-03-21T14:48:18.669Z,72.33
2019-03-21T14:49:26.302Z,72.52
2019-03-21T14:50:35.305Z,72.47
2019-03-21T14:51:42.772Z,72.20
2019-03-21T14:52:47.579Z,72.27
2019-03-21T14:53:52.059Z,72.07
2019-03-21T14:54:58.744Z,72.39
2019-03-21T14:56:02.709Z,72.55
2019-03-21T14:57:07.200Z,72.69
2019-03-21T14:58:11.653Z,72.97
2019-03-21T14:59:18.807Z,72.87
2019-03-21T15:00:26.221Z,72.75
2019-03-21T15:01:30.697Z,72.42
2019-03-21T15:02:38.417Z,72.35
2019-03-21T15:03:42.893Z,72.43
2019-03-21T15:04:50.437Z,71.82
2019-03-21T15:05:54.903Z,72.15
2019-03-21T15:07:02.718Z,71.87
2019-03-21T15:08:07.189Z,71.45
2019-03-21T15:09:14.678Z,71.36
2019-03-21T15:10:19.428Z,71.59
2019-03-21T15:11:23.913Z,71.63
2019-03-21T15:12:29.753Z,71.62
2019-03-21T15:13:34.437Z,71.44
2019-03-21T15:14:41.826Z,71.51
2019-03-21T15:15:46.322Z,71.56
2019-03-21T15:16:50.800Z,71.52
2019-03-21T15:17:55.279Z,71.89
2019-03-21T15:19:02.419Z,71.65
2019-03-21T15:20:10.032Z,71.85
2019-03-21T15:21:14.517Z,71.35
2019-03-21T15:22:19.373Z,71.64
2019-03-21T15:23:25.876Z,71.65
2019-03-21T15:24:30.022Z,71.45
2019-03-21T15:25:35.985Z,70.89
2019-03-21T15:26:40.911Z,71.22
2019-03-21T15:27:46.358Z,71.63
2019-03-21T15:28:53.787Z,71.94
2019-03-21T15:29:58.451Z,71.64
2019-03-21T15:31:02.983Z,71.55
2019-03-21T15:32:07.459Z,71.67
2019-03-21T15:33:12.240Z,71.65
2019-03-21T15:34:16.811Z,71.68
2019-03-21T15:35:24.217Z,71.45
2019-03-21T15:36:29.112Z,71.04
2019-03-21T15:37:36.808Z,71.24
2019-03-21T15:38:44.062Z,71.01
2019-03-21T15:39:51.457Z,71.20
2019-03-21T15:41:02.017Z,71.07
2019-03-21T15:42:06.487Z,71.02
2019-03-21T15:43:14.293Z,71.00
2019-03-21T15:44:21.669Z,71.30
2019-03-21T15:45:26.159Z,71.53
2019-03-21T15:46:30.632Z,71.31
2019-03-21T15:47:38.117Z,71.74
2019-03-21T15:48:42.605Z,71.48
2019-03-21T15:49:50.359Z,71.70
2019-03-21T15:51:03.798Z,71.55
2019-03-21T15:52:01.251Z,71.71
2019-03-21T15:53:06.472Z,71.96
2019-03-21T15:54:10.938Z,71.90
2019-03-21T15:55:15.420Z,72.19
2019-03-21T15:56:20.281Z,72.21
2019-03-21T15:57:24.752Z,71.90
2019-03-21T15:58:29.232Z,71.97
2019-03-21T15:59:33.702Z,71.63
2019-03-21T16:00:44.744Z,71.25
2019-03-21T16:01:49.485Z,71.27
2019-03-21T16:02:56.757Z,70.99
2019-03-21T16:04:01.230Z,70.61
2019-03-21T16:05:08.084Z,70.74
2019-03-21T16:06:15.257Z,70.97
2019-03-21T16:07:20.055Z,71.15
2019-03-21T16:08:29.210Z,71.32
2019-03-21T16:09:34.043Z,70.90
2019-03-21T16:10:38.956Z,70.74
2019-03-21T16:11:46.514Z,70.59
2019-03-21T16:12:54.187Z,70.86
2019-03-21T16:14:01.656Z,71.20
2019-03-21T16:15:08.986Z,71.30
2019-03-21T16:16:13.801Z,71.64
2019-03-21T16:17:18.286Z,71.82
2019-03-21T16:18:23.419Z,71.94
2019-03-21T16:19:31.277Z,72.19
2019-03-21T16:20:41.431Z,71.84
2019-03-21T16:21:46.049Z,71.69
2019-03-21T16:22:53.606Z,71.65
2019-03-21T16:24:04.945Z,71.35
2019-03-21T16:25:12.395Z,71.32
2019-03-21T16:26:17.037Z,71.21
2019-03-21T16:27:21.995Z,71.25
2019-03-21T16:28:26.897Z,71.42
2019-03-21T16:29:36.826Z,71.58
2019-03-21T16:30:47.521Z,71.60
2019-03-21T16:31:52.580Z,72.03
2019-03-21T16:33:02.839Z,72.02
2019-03-21T16:34:13.017Z,72.06
2019-03-21T16:35:15.023Z,72.23
2019-03-21T16:36:19.531Z,72.29
2019-03-21T16:37:24.005Z,72.48
2019-03-21T16:38:29.583Z,72.65
2019-03-21T16:39:36.562Z,72.65
2019-03-21T16:40:44.142Z,72.79